createdAt,value
2023-01-07T00:02:05.344Z,20.20
2023-01-07T00:04:41.552Z,20.20
2023-01-07T00:07:19.695Z,20.10
2023-01-07T00:09:55.466Z,20.10
2023-01-07T00:12:31.180Z,20.10
2023-01-07T00:15:07.529Z,20.10
2023-01-07T00:17:43.120Z,20.10
2023-01-07T00:20:19.224Z,20.00
2023-01-07T00:22:58.502Z,20.00
2023-01-07T00:25:35.180Z,20.00
2023-01-07T00:28:10.733Z,19.90
2023-01-07T00:30:46.901Z,19.90
2023-01-07T00:33:24.201Z,19.90
2023-01-07T00:36:06.045Z,19.80
2023-01-07T00:38:44.150Z,19.90
2023-01-07T00:41:20.262Z,19.90
2023-01-07T00:43:56.389Z,19.90
2023-01-07T00:46:33.777Z,19.90
2023-01-07T00:49:09.357Z,19.90
2023-01-07T00:51:45.259Z,19.90
2023-01-07T00:54:23.527Z,19.90
2023-01-07T00:56:59.412Z,19.90
2023-01-07T00:59:34.975Z,20.00
2023-01-07T01:02:10.885Z,20.20
2023-01-07T01:04:47.103Z,20.30
2023-01-07T01:07:22.905Z,20.40
2023-01-07T01:10:00.948Z,20.50
2023-01-07T01:12:37.942Z,20.60
2023-01-07T01:15:16.205Z,20.70
2023-01-07T01:17:52.157Z,20.90
2023-01-07T01:20:27.752Z,21.00
2023-01-07T01:23:03.593Z,21.00
2023-01-07T01:25:42.141Z,21.00
2023-01-07T01:28:18.506Z,20.90
2023-01-07T01:31:00.983Z,20.90
2023-01-07T01:33:44.670Z,20.90
2023-01-07T01:36:20.468Z,20.90
2023-01-07T01:38:56.784Z,20.80
2023-01-07T01:41:37.092Z,20.80
2023-01-07T01:44:47.061Z,20.90
2023-01-07T01:47:36.443Z,20.90
2023-01-07T01:50:18.820Z,21.00
2023-01-07T01:53:00.110Z,21.00
2023-01-07T01:55:41.179Z,21.20
2023-01-07T01:58:21.475Z,21.40
2023-01-07T02:00:57.757Z,21.50
2023-01-07T02:03:34.574Z,21.60
2023-01-07T02:06:14.073Z,21.60
2023-01-07T02:08:49.944Z,21.50
2023-01-07T02:11:38.524Z,21.50
2023-01-07T02:14:31.168Z,21.40
2023-01-07T02:17:15.144Z,21.30
2023-01-07T02:20:26.440Z,21.30
2023-01-07T02:23:33.253Z,21.30
2023-01-07T02:26:29.062Z,21.40
2023-01-07T02:29:40.139Z,21.40
2023-01-07T02:32:44.135Z,21.40
2023-01-07T02:35:32.310Z,21.40
2023-01-07T02:38:18.129Z,21.40
2023-01-07T02:41:06.687Z,21.40
2023-01-07T02:43:48.103Z,21.30
2023-01-07T02:46:32.407Z,21.30
2023-01-07T02:49:13.136Z,21.30
2023-01-07T02:51:49.681Z,21.40
2023-01-07T02:54:28.066Z,21.50
2023-01-07T02:57:31.774Z,21.80
2023-01-07T03:00:22.004Z,21.80
2023-01-07T03:03:28.199Z,21.80
2023-01-07T03:06:14.669Z,22.10
2023-01-07T03:09:00.678Z,22.30
2023-01-07T03:11:43.645Z,22.50
2023-01-07T03:14:24.752Z,22.60
2023-01-07T03:17:05.379Z,22.50
2023-01-07T03:19:44.299Z,22.50
2023-01-07T03:22:25.104Z,22.50
2023-01-07T03:25:04.982Z,22.40
2023-01-07T03:27:42.258Z,22.40
2023-01-07T03:30:20.286Z,22.40
2023-01-07T03:33:00.243Z,22.20
2023-01-07T03:35:41.738Z,22.20
2023-01-07T03:38:22.211Z,22.30
2023-01-07T03:41:02.961Z,22.30
2023-01-07T03:43:38.031Z,22.40
2023-01-07T03:46:21.375Z,22.40
2023-01-07T03:48:57.452Z,22.40
2023-01-07T03:51:34.439Z,22.40
2023-01-07T03:54:15.723Z,22.50
2023-01-07T03:56:54.799Z,22.40
2023-01-07T03:59:31.462Z,22.40
2023-01-07T04:02:07.323Z,22.30
2023-01-07T04:04:43.429Z,22.20
2023-01-07T04:07:19.774Z,22.10
2023-01-07T04:10:01.183Z,22.10
2023-01-07T04:12:37.148Z,22.20
2023-01-07T04:15:15.165Z,22.30
2023-01-07T04:17:51.198Z,22.40
2023-01-07T04:20:28.099Z,22.40
2023-01-07T04:23:05.995Z,22.40
2023-01-07T04:25:43.929Z,22.40
2023-01-07T04:28:20.670Z,22.40
2023-01-07T04:33:42.183Z,22.30
2023-01-07T04:36:26.795Z,22.30
2023-01-07T04:39:10.042Z,22.40
2023-01-07T04:41:50.897Z,22.50
2023-01-07T04:44:35.705Z,22.60
2023-01-07T04:47:15.455Z,22.60
2023-01-07T04:49:56.173Z,22.60
2023-01-07T05:20:27.169Z,22.00
2023-01-07T05:23:22.816Z,21.90
2023-01-07T06:12:25.338Z,21.60
2023-01-07T06:15:03.671Z,21.70
2023-01-07T06:17:41.286Z,21.60
2023-01-07T06:23:20.375Z,21.50
2023-01-07T06:59:44.105Z,21.00
2023-01-07T08:12:48.117Z,20.80
2023-01-07T08:15:27.102Z,20.70
2023-01-07T08:23:18.392Z,20.40
2023-01-07T08:25:57.765Z,20.50
2023-01-07T08:28:33.131Z,20.50
2023-01-07T08:31:09.114Z,20.50
2023-01-07T08:33:45.086Z,20.40
2023-01-07T08:36:29.561Z,20.40
2023-01-07T08:39:15.603Z,20.50
2023-01-07T08:42:03.404Z,20.50
2023-01-07T11:53:41.762Z,19.80
2023-01-07T11:56:27.033Z,19.80
2023-01-07T11:59:38.237Z,20.00
2023-01-07T12:02:30.727Z,19.70
2023-01-07T12:05:26.256Z,19.60
2023-01-07T12:08:02.266Z,19.70
2023-01-07T12:10:40.745Z,19.60
2023-01-07T12:13:29.026Z,19.70
2023-01-07T12:16:06.076Z,19.70
2023-01-07T12:19:00.866Z,19.70
2023-01-07T12:21:45.948Z,19.80
2023-01-07T12:24:54.577Z,19.80
2023-01-07T12:27:41.624Z,19.80
2023-01-07T12:30:45.189Z,19.90
2023-01-07T17:23:48.091Z,18.80
2023-01-07T17:26:26.514Z,18.80
2023-01-07T17:29:06.499Z,18.80
2023-01-07T17:31:45.950Z,18.80
2023-01-07T17:34:22.752Z,18.80
2023-01-07T17:37:02.018Z,18.80
2023-01-07T17:39:37.955Z,18.80
2023-01-07T17:42:40.762Z,18.80
2023-01-07T17:45:25.441Z,18.80
2023-01-07T17:48:01.807Z,18.80
2023-01-07T17:50:44.244Z,18.60
2023-01-07T17:53:27.231Z,18.80
2023-01-07T17:56:04.832Z,18.80
2023-01-07T17:58:42.749Z,18.80
2023-01-07T18:01:21.300Z,18.80
2023-01-07T18:03:58.195Z,18.80
2023-01-07T18:06:39.665Z,18.80
2023-01-07T18:09:17.495Z,18.80
2023-01-07T18:12:09.226Z,18.80
2023-01-07T18:14:45.668Z,18.80
2023-01-07T18:17:21.664Z,18.80
2023-01-07T18:19:57.049Z,18.80
2023-01-07T18:22:32.553Z,18.80
2023-01-07T18:25:11.318Z,18.80
2023-01-07T18:27:46.824Z,18.80
2023-01-07T18:30:24.121Z,18.70
2023-01-07T18:33:00.007Z,18.80
2023-01-07T18:35:36.775Z,18.70
2023-01-07T18:38:15.887Z,18.70
2023-01-07T18:40:53.514Z,18.70
2023-01-07T18:43:29.027Z,18.70
2023-01-07T18:46:05.418Z,18.70
2023-01-07T18:48:42.492Z,18.70
2023-01-07T18:51:17.950Z,18.60
2023-01-07T18:53:53.264Z,18.60
2023-01-07T18:56:31.498Z,18.60
2023-01-07T18:59:07.266Z,18.60
2023-01-07T19:01:43.078Z,18.60
2023-01-07T19:04:19.228Z,18.50
2023-01-07T19:06:55.615Z,18.60
2023-01-07T19:09:32.054Z,18.50
2023-01-07T19:12:12.934Z,18.60
2023-01-07T19:14:48.656Z,18.60
2023-01-07T19:17:24.959Z,18.60
2023-01-07T19:20:01.101Z,18.70
2023-01-07T19:22:36.520Z,18.60
2023-01-07T19:25:12.500Z,18.60
2023-01-07T19:27:50.994Z,18.70
2023-01-07T19:30:26.423Z,18.70
2023-01-07T19:33:02.995Z,18.70
2023-01-07T19:35:38.810Z,18.70
2023-01-07T19:38:16.179Z,18.70
2023-01-07T19:40:51.763Z,18.70
2023-01-07T19:43:29.067Z,18.60
2023-01-07T19:46:04.946Z,18.60
2023-01-07T19:48:41.366Z,18.60
2023-01-07T19:51:17.369Z,18.70
2023-01-07T19:53:52.904Z,18.60
2023-01-07T19:56:28.290Z,18.70
2023-01-07T19:59:07.126Z,18.70
2023-01-07T20:01:44.063Z,18.70
2023-01-07T20:04:20.236Z,18.70
2023-01-07T20:06:56.350Z,18.80
2023-01-07T20:09:32.512Z,18.70
2023-01-07T20:12:08.526Z,18.80
2023-01-07T20:14:46.904Z,18.80
2023-01-07T20:17:22.543Z,18.80
2023-01-07T20:19:58.852Z,18.90
2023-01-07T20:22:34.536Z,19.00
2023-01-07T20:25:10.341Z,18.90
2023-01-07T20:27:45.816Z,19.00
2023-01-07T20:30:25.181Z,19.00
2023-01-07T20:33:01.593Z,19.00
2023-01-07T20:35:36.965Z,19.00
2023-01-07T20:38:14.136Z,19.10
2023-01-07T20:40:52.007Z,19.00
2023-01-07T20:43:27.925Z,19.10
2023-01-07T20:46:07.714Z,19.20
2023-01-07T20:48:43.500Z,19.20
2023-01-07T20:51:20.260Z,19.50
2023-01-07T20:53:56.258Z,19.30
2023-01-07T20:56:33.822Z,19.40
2023-01-07T20:59:09.174Z,19.50
2023-01-07T21:12:07.515Z,20.50
2023-01-07T21:14:44.449Z,20.60
2023-01-07T21:17:22.192Z,20.70
2023-01-07T21:19:57.822Z,20.80
2023-01-07T21:22:37.479Z,20.90
2023-01-07T21:25:16.175Z,21.00
2023-01-07T21:27:52.106Z,21.10
2023-01-07T21:30:29.887Z,21.20
2023-01-07T21:33:08.229Z,21.20
2023-01-07T21:35:45.908Z,21.30
2023-01-07T21:38:21.270Z,21.40
2023-01-07T21:40:58.648Z,21.50
2023-01-07T21:43:36.604Z,21.60
2023-01-07T21:46:15.529Z,21.60
2023-01-07T21:48:53.680Z,21.70
2023-01-07T21:51:30.589Z,21.80
2023-01-07T21:54:06.904Z,21.80
2023-01-07T21:56:43.044Z,21.90
2023-01-07T21:59:18.787Z,21.90
2023-01-07T22:01:54.271Z,21.90
2023-01-07T22:04:33.019Z,21.90
2023-01-07T22:07:08.603Z,21.90
2023-01-07T22:09:43.965Z,21.90
2023-01-07T22:12:20.539Z,22.00
2023-01-07T22:14:56.797Z,22.00
2023-01-07T22:17:32.020Z,22.00
2023-01-07T22:20:10.181Z,22.00
2023-01-07T22:22:45.709Z,22.00
2023-01-07T22:25:22.381Z,22.00
2023-01-07T22:28:03.298Z,22.00
2023-01-07T22:30:40.775Z,21.90
2023-01-07T22:43:48.284Z,22.10
2023-01-07T22:46:27.487Z,22.20
2023-01-07T22:49:04.043Z,22.30
2023-01-07T22:51:45.774Z,22.30
2023-01-07T22:54:22.710Z,22.40
2023-01-07T22:56:59.612Z,22.40
2023-01-07T22:59:37.257Z,22.40
2023-01-07T23:02:12.963Z,22.50
2023-01-07T23:04:48.312Z,22.50
2023-01-07T23:07:26.768Z,22.60
2023-01-07T23:10:02.043Z,22.70
2023-01-07T23:12:37.511Z,22.60
2023-01-07T23:15:14.761Z,22.70
2023-01-07T23:17:51.184Z,22.70
2023-01-07T23:20:27.077Z,22.80
2023-01-07T23:23:04.536Z,22.80
2023-01-07T23:25:40.093Z,22.80
2023-01-07T23:28:16.430Z,22.80
2023-01-07T23:30:52.389Z,22.90
2023-01-07T23:33:27.781Z,23.00
2023-01-07T23:36:08.004Z,23.00
2023-01-07T23:38:49.149Z,23.10
2023-01-07T23:41:24.577Z,23.20
2023-01-07T23:43:59.898Z,23.20
2023-01-07T23:46:36.526Z,23.30
2023-01-07T23:49:12.739Z,23.30
2023-01-07T23:51:48.041Z,23.40
2023-01-07T23:54:25.589Z,23.50
2023-01-07T23:57:01.134Z,23.50
2023-01-07T23:59:38.000Z,23.50
